createdAt,value
2018-01-06T00:00:51.890Z,81.47
2018-01-06T00:03:22.725Z,92.63
2018-01-06T00:05:53.603Z,91.90
2018-01-06T00:08:24.672Z,85.57
2018-01-06T00:10:56.771Z,97.77
2018-01-06T00:13:27.607Z,107.43
2018-01-06T00:15:58.409Z,112.27
2018-01-06T00:18:30.032Z,116.27
2018-01-06T00:21:01.088Z,99.57
2018-01-06T00:23:32.803Z,92.17
2018-01-06T00:26:03.785Z,89.97
2018-01-06T00:28:34.606Z,90.20
2018-01-06T00:31:05.973Z,93.80
2018-01-06T00:33:36.492Z,111.07
2018-01-06T00:36:07.584Z,99.73
2018-01-06T00:38:38.083Z,98.70
2018-01-06T00:41:08.688Z,90.33
2018-01-06T00:43:40.385Z,113.60
2018-01-06T00:46:10.882Z,98.23
2018-01-06T00:48:42.435Z,98.60
2018-01-06T00:51:13.646Z,96.40
2018-01-06T00:53:44.262Z,105.97
2018-01-06T00:56:16.124Z,104.30
2018-01-06T00:58:46.596Z,93.47
2018-01-06T01:01:17.840Z,94.70
2018-01-06T01:03:48.255Z,91.97
2018-01-06T01:06:19.402Z,75.73
2018-01-06T01:08:50.752Z,96.70
2018-01-06T01:11:21.162Z,84.73
2018-01-06T01:13:51.587Z,84.50
2018-01-06T01:16:22.186Z,80.60
2018-01-06T01:18:52.525Z,81.17
2018-01-06T01:21:22.848Z,77.70
2018-01-06T01:23:54.345Z,86.43
2018-01-06T01:26:24.690Z,104.97
2018-01-06T01:28:55.031Z,101.90
2018-01-06T01:31:25.661Z,94.03
2018-01-06T01:33:56.041Z,94.33
2018-01-06T01:36:27.173Z,98.23
2018-01-06T01:38:57.854Z,97.83
2018-01-06T01:41:28.582Z,106.20
2018-01-06T01:43:58.944Z,89.40
2018-01-06T01:46:29.837Z,95.57
2018-01-06T01:49:00.484Z,118.43
2018-01-06T01:51:30.789Z,121.73
2018-01-06T01:54:01.829Z,124.30
2018-01-06T01:56:32.450Z,116.50
2018-01-06T01:59:02.872Z,121.47
2018-01-06T02:01:33.481Z,111.63
2018-01-06T02:04:04.011Z,114.80
2018-01-06T02:06:35.136Z,114.50
2018-01-06T02:09:06.001Z,114.77
2018-01-06T02:11:36.550Z,105.30
2018-01-06T02:14:06.865Z,105.87
2018-01-06T02:16:37.553Z,106.30
2018-01-06T02:19:08.049Z,102.97
2018-01-06T02:21:38.437Z,107.77
2018-01-06T02:24:10.038Z,94.83
2018-01-06T02:26:40.405Z,93.33
2018-01-06T02:29:10.973Z,86.93
2018-01-06T02:31:41.684Z,87.57
2018-01-06T02:34:12.161Z,86.40
2018-01-06T02:36:42.975Z,86.17
2018-01-06T02:39:13.871Z,83.77
2018-01-06T02:41:44.422Z,78.63
2018-01-06T02:44:15.454Z,69.40
2018-01-06T02:46:46.601Z,64.47
2018-01-06T02:49:17.257Z,60.83
2018-01-06T02:51:48.642Z,64.30
2018-01-06T02:54:19.818Z,61.37
2018-01-06T02:56:50.654Z,67.27
2018-01-06T02:59:20.973Z,59.37
2018-01-06T03:01:51.614Z,59.70
2018-01-06T03:04:22.182Z,58.33
2018-01-06T03:06:54.433Z,53.73
2018-01-06T03:09:25.545Z,50.67
2018-01-06T03:11:56.110Z,65.23
2018-01-06T03:14:26.512Z,57.10
2018-01-06T03:16:56.857Z,60.07
2018-01-06T03:19:27.429Z,61.63
2018-01-06T03:21:58.292Z,52.83
2018-01-06T03:24:28.636Z,58.80
2018-01-06T03:26:59.181Z,55.33
2018-01-06T03:29:29.793Z,56.27
2018-01-06T03:32:00.446Z,59.33
2018-01-06T03:34:30.765Z,56.63
2018-01-06T03:37:01.136Z,55.70
2018-01-06T03:39:31.705Z,63.90
2018-01-06T03:42:01.997Z,59.13
2018-01-06T03:44:32.705Z,65.97
2018-01-06T03:47:03.778Z,55.23
2018-01-06T03:49:34.325Z,62.03
2018-01-06T03:52:04.860Z,57.97
2018-01-06T03:54:35.457Z,69.43
2018-01-06T03:57:05.808Z,61.80
2018-01-06T03:59:36.305Z,55.70
2018-01-06T04:02:07.085Z,60.20
2018-01-06T04:04:37.417Z,60.97
2018-01-06T04:07:10.001Z,54.13
2018-01-06T04:09:40.369Z,61.30
2018-01-06T04:12:10.907Z,56.57
2018-01-06T04:14:41.709Z,63.53
2018-01-06T04:17:12.808Z,64.03
2018-01-06T04:19:44.025Z,61.10
2018-01-06T04:22:14.589Z,59.33
2018-01-06T04:24:45.177Z,55.60
2018-01-06T04:27:15.877Z,56.47
2018-01-06T04:29:46.217Z,56.63
2018-01-06T04:32:16.534Z,59.47
2018-01-06T04:34:46.847Z,57.37
2018-01-06T04:37:17.949Z,60.43
2018-01-06T04:39:48.587Z,52.40
2018-01-06T04:42:19.565Z,50.47
2018-01-06T04:44:50.853Z,51.10
2018-01-06T04:47:21.657Z,53.40
2018-01-06T04:49:52.349Z,55.27
2018-01-06T04:52:23.949Z,49.27
2018-01-06T04:54:54.512Z,49.77
2018-01-06T04:57:25.745Z,48.40
2018-01-06T04:59:56.074Z,51.30
2018-01-06T05:02:26.454Z,51.77
2018-01-06T05:04:58.651Z,57.17
2018-01-06T05:07:29.037Z,51.53
2018-01-06T05:10:00.130Z,50.50
2018-01-06T05:12:30.728Z,44.00
2018-01-06T05:15:02.566Z,49.00
2018-01-06T05:17:33.146Z,47.70
2018-01-06T05:20:03.994Z,48.93
2018-01-06T05:22:36.358Z,44.13
2018-01-06T05:25:06.686Z,50.30
2018-01-06T05:27:37.397Z,47.23
2018-01-06T05:30:08.093Z,45.23
2018-01-06T05:32:39.305Z,47.40
2018-01-06T05:35:09.896Z,41.80
2018-01-06T05:37:40.201Z,41.03
2018-01-06T05:40:10.557Z,43.90
2018-01-06T05:42:42.776Z,45.13
2018-01-06T05:45:14.033Z,45.73
2018-01-06T05:47:45.393Z,40.53
2018-01-06T05:50:15.790Z,44.70
2018-01-06T05:52:47.183Z,44.53
2018-01-06T05:55:17.894Z,41.33
2018-01-06T05:57:48.654Z,44.40
2018-01-06T06:00:19.293Z,45.70
2018-01-06T06:02:49.606Z,37.87
2018-01-06T06:05:20.221Z,38.43
2018-01-06T06:07:50.792Z,52.70
2018-01-06T06:10:21.096Z,43.00
2018-01-06T06:12:52.497Z,41.97
2018-01-06T06:15:23.809Z,41.67
2018-01-06T06:17:54.242Z,46.30
2018-01-06T06:20:25.640Z,43.50
2018-01-06T06:22:56.904Z,42.07
2018-01-06T06:25:27.470Z,41.70
2018-01-06T06:27:57.861Z,52.80
2018-01-06T06:30:28.242Z,37.40
2018-01-06T06:32:58.561Z,41.87
2018-01-06T06:35:30.167Z,44.90
2018-01-06T06:38:00.584Z,47.63
2018-01-06T06:40:30.986Z,44.70
2018-01-06T06:43:01.891Z,43.50
2018-01-06T06:45:33.005Z,49.37
2018-01-06T06:48:03.353Z,43.50
2018-01-06T06:50:34.105Z,45.70
2018-01-06T06:53:05.194Z,46.80
2018-01-06T06:55:35.889Z,43.37
2018-01-06T06:58:06.313Z,42.63
2018-01-06T07:00:37.100Z,44.20
2018-01-06T07:03:07.412Z,46.27
2018-01-06T07:05:44.881Z,48.10
2018-01-06T07:08:18.341Z,41.37
2018-01-06T07:10:51.581Z,40.53
2018-01-06T07:13:23.542Z,46.40
2018-01-06T07:15:53.867Z,44.17
2018-01-06T07:18:24.752Z,45.10
2018-01-06T07:20:55.143Z,43.17
2018-01-06T07:23:25.457Z,39.47
2018-01-06T07:25:55.776Z,39.77
2018-01-06T07:28:27.433Z,41.83
2018-01-06T07:30:57.781Z,40.73
2018-01-06T07:33:29.609Z,40.97
2018-01-06T07:36:00.353Z,42.23
2018-01-06T07:38:31.121Z,46.23
2018-01-06T07:41:02.216Z,44.33
2018-01-06T07:43:32.633Z,38.63
2018-01-06T07:46:05.880Z,45.10
2018-01-06T07:48:37.031Z,39.10
2018-01-06T07:51:08.102Z,43.00
2018-01-06T07:53:38.956Z,39.80
2018-01-06T07:56:09.350Z,46.13
2018-01-06T07:58:39.868Z,41.23
2018-01-06T08:01:10.661Z,45.07
2018-01-06T08:03:41.013Z,36.10
2018-01-06T08:06:12.341Z,36.70
2018-01-06T08:08:43.120Z,40.33
2018-01-06T08:11:13.425Z,39.97
2018-01-06T08:13:44.545Z,34.80
2018-01-06T08:16:16.041Z,37.73
2018-01-06T08:18:46.394Z,37.97
2018-01-06T08:21:16.690Z,31.50
2018-01-06T08:23:47.521Z,39.20
2018-01-06T08:26:18.237Z,37.27
2018-01-06T08:28:48.554Z,36.70
2018-01-06T08:31:19.159Z,34.33
2018-01-06T08:33:49.477Z,39.77
2018-01-06T08:36:19.769Z,34.77
2018-01-06T08:38:50.675Z,37.60
2018-01-06T08:41:20.969Z,33.60
2018-01-06T08:43:52.065Z,37.93
2018-01-06T08:46:23.689Z,31.27
2018-01-06T08:48:54.015Z,38.10
2018-01-06T08:51:26.007Z,35.70
2018-01-06T08:53:56.671Z,39.97
2018-01-06T08:56:26.984Z,39.93
2018-01-06T08:58:57.319Z,39.60
2018-01-06T09:01:27.906Z,41.33
2018-01-06T09:03:58.481Z,43.53
2018-01-06T09:06:29.589Z,46.97
2018-01-06T09:09:00.165Z,44.17
2018-01-06T09:11:31.324Z,48.53
2018-01-06T09:14:01.701Z,50.30
2018-01-06T09:16:32.261Z,46.87
2018-01-06T09:19:03.764Z,44.90
2018-01-06T09:21:34.099Z,45.97
2018-01-06T09:24:04.487Z,46.03
2018-01-06T09:26:35.439Z,41.93
2018-01-06T09:29:05.816Z,49.17
2018-01-06T09:31:37.045Z,45.40
2018-01-06T09:34:07.792Z,44.93
2018-01-06T09:36:38.335Z,47.13
2018-01-06T09:39:08.709Z,45.20
2018-01-06T09:41:39.351Z,45.70
2018-01-06T09:44:09.718Z,48.50
2018-01-06T09:46:40.158Z,46.37
2018-01-06T09:49:11.144Z,44.37
2018-01-06T09:51:42.068Z,43.83
2018-01-06T09:54:12.575Z,43.60
2018-01-06T09:56:43.288Z,45.90
2018-01-06T09:59:13.995Z,47.53
2018-01-06T10:01:45.153Z,48.57
2018-01-06T10:04:16.326Z,57.10
2018-01-06T10:06:46.880Z,46.67
2018-01-06T10:09:18.238Z,47.47
2018-01-06T10:11:48.932Z,58.33
2018-01-06T10:14:19.355Z,52.27
2018-01-06T10:16:49.761Z,49.77
2018-01-06T10:19:20.184Z,48.13
2018-01-06T10:21:51.010Z,55.40
2018-01-06T10:24:21.779Z,56.77
2018-01-06T10:26:52.204Z,51.83
2018-01-06T10:29:22.991Z,53.40
2018-01-06T10:31:53.698Z,57.60
2018-01-06T10:34:24.191Z,48.93
2018-01-06T10:36:55.001Z,54.87
2018-01-06T10:39:25.545Z,54.00
2018-01-06T10:41:56.544Z,52.93
2018-01-06T10:44:28.342Z,57.63
2018-01-06T10:46:58.901Z,55.93
2018-01-06T10:49:29.536Z,56.70
2018-01-06T10:52:00.313Z,56.50
2018-01-06T10:54:30.860Z,49.93
2018-01-06T10:57:01.353Z,51.57
2018-01-06T10:59:32.178Z,54.83
2018-01-06T11:02:07.109Z,54.60
2018-01-06T11:04:37.583Z,52.23
2018-01-06T11:07:08.357Z,55.87
2018-01-06T11:09:38.969Z,48.47
2018-01-06T11:12:09.577Z,51.03
2018-01-06T11:14:40.571Z,55.83
2018-01-06T11:17:12.000Z,49.40
2018-01-06T11:19:42.633Z,57.20
2018-01-06T11:22:13.439Z,54.60
2018-01-06T11:24:44.166Z,54.80
2018-01-06T11:27:14.898Z,57.57
2018-01-06T11:29:45.776Z,50.50
2018-01-06T11:32:17.546Z,52.87
2018-01-06T11:34:53.710Z,52.67
2018-01-06T11:37:25.196Z,48.17
2018-01-06T11:39:55.892Z,46.97
2018-01-06T11:42:27.282Z,42.47
2018-01-06T11:44:58.130Z,34.13
2018-01-06T11:47:28.872Z,33.43
2018-01-06T11:50:00.980Z,20.23
2018-01-06T11:52:31.803Z,20.80
2018-01-06T11:55:02.589Z,16.30
2018-01-06T11:57:33.571Z,14.20
2018-01-06T12:00:04.501Z,13.03
2018-01-06T12:02:36.487Z,12.53
2018-01-06T12:48:50.821Z,6.97
2018-01-06T12:51:21.698Z,6.30
2018-01-06T12:53:53.047Z,7.40
2018-01-06T12:56:24.221Z,8.20
2018-01-06T12:58:56.225Z,8.97
2018-01-06T13:01:27.297Z,8.03
2018-01-06T13:03:58.500Z,8.23
2018-01-06T13:06:29.915Z,8.00
2018-01-06T13:09:01.318Z,9.30
2018-01-06T13:11:32.358Z,9.30
2018-01-06T13:14:03.301Z,9.27
2018-01-06T13:16:34.626Z,8.00
2018-01-06T13:19:05.795Z,8.47
2018-01-06T13:21:37.185Z,9.03
2018-01-06T13:24:08.535Z,9.00
2018-01-06T13:26:39.761Z,10.20
2018-01-06T13:29:10.846Z,11.13
2018-01-06T13:31:42.918Z,11.67
2018-01-06T13:34:16.526Z,10.63
2018-01-06T13:36:47.495Z,11.53
2018-01-06T13:39:18.858Z,11.07
2018-01-06T13:41:49.762Z,11.73
2018-01-06T13:44:21.647Z,14.63
2018-01-06T13:46:53.721Z,16.97
2018-01-06T13:49:24.584Z,11.40
2018-01-06T13:51:55.233Z,9.00
2018-01-06T13:54:26.074Z,9.73
2018-01-06T13:56:57.093Z,10.40
2018-01-06T13:59:27.968Z,11.20
2018-01-06T14:01:58.888Z,12.13
2018-01-06T14:04:29.738Z,10.00
2018-01-06T14:07:00.679Z,11.40
2018-01-06T14:09:32.328Z,12.73
2018-01-06T14:12:03.319Z,12.40
2018-01-06T14:14:34.255Z,12.20
2018-01-06T14:17:05.177Z,11.77
2018-01-06T14:19:36.909Z,11.43
2018-01-06T14:22:07.951Z,12.70
2018-01-06T14:24:39.806Z,11.90
2018-01-06T14:27:10.886Z,11.60
2018-01-06T14:29:42.702Z,12.20
2018-01-06T14:32:14.388Z,10.90
2018-01-06T14:34:46.101Z,8.23
2018-01-06T14:37:20.173Z,7.90
2018-01-06T14:39:54.689Z,8.03
2018-01-06T14:42:26.646Z,7.87
2018-01-06T14:44:58.546Z,7.43
2018-01-06T14:47:32.062Z,7.00
2018-01-06T14:50:04.261Z,6.60
2018-01-06T14:52:37.278Z,6.83
2018-01-06T14:55:10.453Z,8.07
2018-01-06T14:57:41.579Z,7.87
2018-01-06T15:00:16.010Z,7.93
2018-01-06T15:02:47.260Z,7.67
2018-01-06T15:05:19.711Z,8.17
2018-01-06T15:07:52.155Z,7.63
2018-01-06T15:10:23.965Z,8.13
2018-01-06T15:12:57.798Z,8.60
2018-01-06T15:15:29.821Z,7.97
2018-01-06T15:18:03.240Z,7.80
2018-01-06T15:20:37.360Z,8.53
2018-01-06T15:23:10.264Z,7.83
2018-01-06T15:25:41.327Z,8.40
2018-01-06T15:28:13.490Z,7.77
2018-01-06T15:30:47.576Z,7.47
2018-01-06T15:33:19.630Z,8.10
2018-01-06T15:35:50.797Z,7.83
2018-01-06T15:38:22.648Z,8.90
2018-01-06T15:40:56.904Z,7.57
2018-01-06T15:43:29.108Z,10.50
2018-01-06T15:46:04.022Z,9.30
2018-01-06T15:48:38.963Z,8.27
2018-01-06T15:51:13.745Z,9.63
2018-01-06T15:53:46.133Z,8.53
2018-01-06T15:56:19.375Z,10.20
2018-01-06T15:58:52.124Z,8.70
2018-01-06T16:01:23.562Z,14.33
2018-01-06T16:03:59.209Z,9.80
2018-01-06T16:06:31.282Z,9.23
2018-01-06T16:09:04.841Z,9.60
2018-01-06T16:11:38.510Z,10.37
2018-01-06T16:14:13.565Z,9.27
2018-01-06T16:16:48.291Z,10.90
2018-01-06T16:19:20.290Z,10.17
2018-01-06T16:21:53.362Z,10.53
2018-01-06T16:24:25.336Z,10.87
2018-01-06T16:26:57.673Z,10.80
2018-01-06T16:29:29.531Z,10.53
2018-01-06T16:32:02.049Z,9.33
2018-01-06T16:34:33.247Z,10.10
2018-01-06T16:37:04.675Z,10.00
2018-01-06T16:39:37.746Z,9.20
2018-01-06T16:42:12.650Z,10.43
2018-01-06T16:44:44.362Z,10.83
2018-01-06T16:47:16.278Z,9.90
2018-01-06T16:49:51.071Z,10.70
2018-01-06T16:52:23.266Z,9.13
2018-01-06T16:54:55.016Z,11.03
2018-01-06T16:57:26.702Z,8.97
2018-01-06T16:59:59.174Z,10.73
2018-01-06T17:02:32.106Z,9.40
2018-01-06T17:05:03.936Z,9.40
2018-01-06T17:07:37.671Z,11.17
2018-01-06T17:10:09.528Z,8.30
2018-01-06T17:12:40.995Z,8.73
2018-01-06T17:15:19.079Z,9.93
2018-01-06T17:17:53.238Z,10.07
2018-01-06T17:20:25.056Z,8.27
2018-01-06T17:22:58.260Z,6.37
2018-01-06T17:25:30.945Z,6.80
2018-01-06T17:28:03.718Z,6.63
2018-01-06T17:30:36.226Z,7.10
2018-01-06T17:33:07.677Z,6.53
2018-01-06T17:35:39.791Z,7.20
2018-01-06T17:38:12.272Z,6.80
2018-01-06T17:40:43.753Z,6.20
2018-01-06T17:43:14.726Z,6.90
2018-01-06T17:45:46.332Z,7.40
2018-01-06T17:48:17.829Z,6.83
2018-01-06T17:50:49.203Z,6.70
2018-01-06T17:53:22.124Z,6.77
2018-01-06T17:55:53.282Z,7.37
2018-01-06T17:58:24.633Z,6.87
2018-01-06T18:00:57.988Z,6.87
2018-01-06T18:03:30.601Z,7.20
2018-01-06T18:06:02.616Z,6.03
2018-01-06T18:08:34.289Z,6.03
2018-01-06T18:11:07.284Z,6.53
2018-01-06T18:13:46.261Z,46.00
2018-01-06T18:16:24.097Z,6.83
2018-01-06T18:18:56.450Z,7.60
2018-01-06T18:21:28.334Z,6.53
2018-01-06T18:23:59.627Z,7.67
2018-01-06T18:26:31.957Z,6.60
2018-01-06T18:29:03.342Z,6.80
2018-01-06T18:31:34.862Z,7.10
2018-01-06T18:34:06.376Z,7.47
2018-01-06T18:36:39.215Z,7.40
2018-01-06T18:39:11.145Z,7.00
2018-01-06T18:41:42.821Z,7.47
2018-01-06T18:44:14.895Z,7.30
2018-01-06T18:46:47.411Z,7.53
2018-01-06T18:49:19.127Z,7.33
2018-01-06T18:51:50.592Z,7.50
2018-01-06T18:54:24.463Z,7.80
2018-01-06T18:56:56.844Z,7.20
2018-01-06T18:59:28.741Z,8.50
2018-01-06T19:02:01.704Z,8.40
2018-01-06T19:04:34.739Z,9.40
2018-01-06T19:07:10.330Z,9.30
2018-01-06T19:09:42.828Z,10.40
2018-01-06T19:12:15.444Z,10.33
2018-01-06T19:14:47.663Z,10.00
2018-01-06T19:17:19.953Z,8.93
2018-01-06T19:19:52.124Z,8.77
2018-01-06T19:22:24.211Z,10.20
2018-01-06T19:24:57.695Z,10.80
2018-01-06T19:27:32.000Z,10.73
2018-01-06T19:30:03.303Z,11.00
2018-01-06T19:32:35.059Z,11.70
2018-01-06T19:35:11.595Z,11.87
2018-01-06T19:37:44.130Z,11.23
2018-01-06T19:40:17.779Z,13.37
2018-01-06T19:42:49.345Z,12.33
2018-01-06T19:45:21.607Z,12.77
2018-01-06T19:47:53.611Z,12.67
2018-01-06T19:50:26.455Z,16.07
2018-01-06T19:52:57.708Z,13.23
2018-01-06T19:55:29.056Z,13.70
2018-01-06T19:58:01.613Z,12.70
2018-01-06T20:00:33.783Z,14.57
2018-01-06T20:03:05.813Z,12.13
2018-01-06T20:05:38.860Z,13.83
2018-01-06T20:08:20.185Z,12.87
2018-01-06T20:10:52.514Z,12.90
2018-01-06T20:13:23.696Z,12.20
2018-01-06T20:15:56.125Z,13.17
2018-01-06T20:18:27.640Z,13.47
2018-01-06T20:21:00.629Z,11.07
2018-01-06T20:23:32.178Z,13.37
2018-01-06T20:26:04.408Z,11.77
2018-01-06T20:28:35.895Z,11.27
2018-01-06T20:31:07.190Z,10.20
2018-01-06T20:33:38.693Z,12.97
2018-01-06T20:36:10.742Z,11.20
2018-01-06T20:38:43.138Z,12.47
2018-01-06T20:41:14.324Z,12.17
2018-01-06T20:43:45.592Z,11.53
2018-01-06T20:46:17.110Z,10.50
2018-01-06T20:48:48.639Z,10.13
2018-01-06T20:51:21.073Z,9.77
2018-01-06T20:53:52.292Z,10.03
2018-01-06T20:56:23.942Z,10.40
2018-01-06T20:58:56.204Z,11.83
2018-01-06T21:01:28.058Z,10.00
2018-01-06T21:03:59.235Z,11.93
2018-01-06T21:06:31.369Z,10.17
2018-01-06T21:09:03.648Z,13.10
2018-01-06T21:11:35.996Z,9.83
2018-01-06T21:14:08.256Z,33.97
2018-01-06T21:16:39.422Z,9.63
2018-01-06T21:19:10.996Z,11.33
2018-01-06T21:21:42.821Z,12.57
2018-01-06T21:24:14.115Z,11.00
2018-01-06T21:26:45.517Z,8.47
2018-01-06T21:29:18.200Z,11.33
2018-01-06T21:31:50.398Z,7.93
2018-01-06T21:34:21.795Z,12.70
2018-01-06T21:36:52.990Z,8.03
2018-01-06T21:39:24.336Z,7.40
2018-01-06T21:41:55.497Z,7.73
2018-01-06T21:44:27.448Z,7.20
2018-01-06T21:46:59.811Z,9.87
2018-01-06T21:49:31.672Z,9.07
2018-01-06T21:52:03.032Z,10.03
2018-01-06T21:54:34.973Z,6.07
2018-01-06T21:57:06.558Z,5.60
2018-01-06T21:59:37.773Z,6.90
2018-01-06T22:02:09.444Z,4.20
2018-01-06T22:04:42.008Z,7.90
2018-01-06T22:07:13.187Z,4.07
2018-01-06T22:09:45.558Z,6.17
2018-01-06T22:12:16.986Z,4.53
2018-01-06T22:14:49.126Z,4.57
2018-01-06T22:17:21.114Z,4.63
2018-01-06T22:19:54.850Z,7.73
2018-01-06T22:22:26.250Z,5.70
2018-01-06T22:24:57.390Z,3.30
2018-01-06T22:27:28.798Z,6.00
2018-01-06T22:30:00.928Z,5.20
2018-01-06T22:32:32.249Z,6.10
2018-01-06T22:35:05.165Z,7.43
2018-01-06T22:37:37.180Z,4.67
2018-01-06T22:40:09.389Z,3.93
2018-01-06T22:42:40.905Z,6.27
2018-01-06T22:45:12.762Z,4.10
2018-01-06T22:47:43.950Z,5.17
2018-01-06T22:50:16.243Z,2.90
2018-01-06T22:52:47.650Z,6.20
2018-01-06T22:55:18.975Z,5.53
2018-01-06T22:57:50.197Z,3.20
2018-01-06T23:00:21.237Z,4.57
2018-01-06T23:02:52.529Z,7.70
2018-01-06T23:05:23.449Z,4.40
2018-01-06T23:07:54.488Z,5.30
2018-01-06T23:10:26.848Z,4.53
2018-01-06T23:12:58.170Z,3.70
2018-01-06T23:15:29.194Z,5.80
2018-01-06T23:18:00.213Z,5.47
2018-01-06T23:20:31.423Z,3.40
2018-01-06T23:23:03.418Z,2.17
2018-01-06T23:25:34.567Z,2.37
2018-01-06T23:28:05.790Z,5.63
2018-01-06T23:30:36.824Z,5.63
2018-01-06T23:33:09.111Z,2.90
2018-01-06T23:35:40.116Z,7.63
2018-01-06T23:38:12.319Z,8.17
2018-01-06T23:40:43.366Z,3.97
2018-01-06T23:43:14.419Z,5.30
2018-01-06T23:45:45.655Z,7.30
2018-01-06T23:48:17.449Z,5.53
2018-01-06T23:50:49.647Z,6.95
2018-01-06T23:53:21.627Z,6.90
2018-01-06T23:55:53.640Z,4.25
2018-01-06T23:58:25.029Z,5.62
